Time;durP1;ratioP1;P1;durP2;ratioP2;P2;SDS_P1;SDS_P2;PMS_P1;PMS_P2;Temp;Humidity;BMP_temperature;BMP_pressure;BME280_temperature;BME280_humidity;BME280_pressure;Samples;Min_cycle;Max_cycle;Signal;HPM_P1;HPM_P2
2022/12/27 00:01:42;;;;;;;4.03;2.00;;;5.20;88.70;;;;;;5115972;28;20034;-74
2022/12/27 00:04:07;;;;;;;7.53;2.42;;;5.20;88.60;;;;;;5133815;28;20028;-74
2022/12/27 00:06:33;;;;;;;7.65;2.40;;;5.20;88.80;;;;;;5133795;28;20055;-74
2022/12/27 00:09:00;;;;;;;5.45;2.40;;;5.20;88.90;;;;;;5133664;28;20087;-74
2022/12/27 00:11:28;;;;;;;4.95;2.55;;;5.20;89.00;;;;;;5133744;28;20050;-74
2022/12/27 00:13:57;;;;;;;3.72;1.80;;;5.20;88.90;;;;;;5133694;28;20045;-74
2022/12/27 00:16:22;;;;;;;8.70;2.92;;;5.20;88.90;;;;;;5132754;28;20012;-74
2022/12/27 00:18:48;;;;;;;4.47;2.10;;;5.20;89.00;;;;;;5115546;28;20069;-74
2022/12/27 00:21:15;;;;;;;4.40;2.00;;;5.20;89.10;;;;;;5115669;28;20031;-74
2022/12/27 00:23:44;;;;;;;6.45;2.78;;;5.20;89.10;;;;;;5136127;28;20024;-74
2022/12/27 00:26:19;;;;;;;8.30;2.55;;;5.20;89.20;;;;;;5137716;28;20016;-74
2022/12/27 00:28:45;;;;;;;22.73;3.15;;;5.20;89.40;;;;;;5136661;28;20047;-74
2022/12/27 00:31:11;;;;;;;4.40;1.58;;;5.20;89.60;;;;;;5137588;28;20024;-74
2022/12/27 00:33:39;;;;;;;8.63;2.08;;;5.20;89.60;;;;;;5137488;28;20031;-74
2022/12/27 00:36:07;;;;;;;5.47;2.00;;;5.20;89.60;;;;;;5136483;28;20020;-73
2022/12/27 00:38:34;;;;;;;4.90;2.42;;;5.20;89.80;;;;;;5137421;27;20027;-74
2022/12/27 00:41:00;;;;;;;6.18;2.70;;;5.10;89.80;;;;;;5137451;28;20054;-74
2022/12/27 00:43:26;;;;;;;4.50;2.22;;;5.20;89.80;;;;;;5137360;28;20051;-74
2022/12/27 00:45:52;;;;;;;5.43;2.40;;;5.20;89.80;;;;;;5137299;28;20089;-74
2022/12/27 00:48:17;;;;;;;8.30;3.22;;;5.10;89.90;;;;;;5137249;28;20055;-73
2022/12/27 00:50:44;;;;;;;7.22;2.63;;;5.10;90.00;;;;;;5137320;28;20051;-74
2022/12/27 00:53:10;;;;;;;6.18;2.33;;;5.10;90.10;;;;;;5137098;28;20028;-74
2022/12/27 00:55:36;;;;;;;6.10;2.50;;;5.00;90.10;;;;;;5137147;28;20424;-73
2022/12/27 00:58:02;;;;;;;8.18;2.65;;;5.00;90.20;;;;;;5136020;28;20050;-74
2022/12/27 01:00:27;;;;;;;2.05;1.63;;;5.00;90.20;;;;;;5136154;28;20027;-74
2022/12/27 01:02:53;;;;;;;4.55;2.67;;;5.00;90.40;;;;;;5136026;28;20027;-74
2022/12/27 01:05:19;;;;;;;4.82;1.80;;;5.00;90.40;;;;;;5135900;28;20016;-73
2022/12/27 01:07:45;;;;;;;9.38;2.60;;;5.00;90.50;;;;;;5136821;28;20087;-73
2022/12/27 01:10:10;;;;;;;6.88;2.08;;;5.00;90.60;;;;;;5136808;28;20024;-74
2022/12/27 01:12:36;;;;;;;3.88;2.58;;;5.00;90.50;;;;;;5101937;28;20027;-73
2022/12/27 01:15:03;;;;;;;5.43;2.42;;;5.00;90.60;;;;;;5136660;28;20023;-74
2022/12/27 01:17:29;;;;;;;4.15;2.10;;;4.90;90.60;;;;;;5135687;28;20052;-73
2022/12/27 01:19:54;;;;;;;8.90;2.40;;;5.00;90.60;;;;;;5135438;28;20075;-74
2022/12/27 01:22:20;;;;;;;7.82;2.42;;;5.00;90.60;;;;;;5136690;28;20031;-73
2022/12/27 01:24:46;;;;;;;11.65;2.80;;;5.00;90.60;;;;;;5136574;28;20027;-73
2022/12/27 01:27:11;;;;;;;4.35;1.88;;;5.00;90.70;;;;;;5135480;28;20089;-73
2022/12/27 01:29:38;;;;;;;7.68;2.60;;;5.00;90.80;;;;;;5136431;28;20027;-73
2022/12/27 01:32:03;;;;;;;6.45;2.42;;;5.10;90.70;;;;;;5135483;28;20028;-73
2022/12/27 01:34:29;;;;;;;4.65;1.80;;;5.10;90.70;;;;;;5135037;28;20019;-73
2022/12/27 01:36:54;;;;;;;7.28;2.47;;;5.10;90.70;;;;;;5118202;28;20032;-74
2022/12/27 01:39:20;;;;;;;8.50;2.78;;;5.10;90.70;;;;;;5135326;28;20023;-74
2022/12/27 01:44:37;;;;;;;9.70;2.55;;;5.10;90.60;;;;;;5136429;28;20065;-74
2022/12/27 01:47:15;;;;;;;7.07;2.03;;;5.20;90.60;;;;;;5135186;28;20043;-74
2022/12/27 01:50:03;;;;;;;4.60;1.98;;;5.10;90.60;;;;;;5136212;28;20034;-74
2022/12/27 01:52:49;;;;;;;4.90;2.20;;;5.10;90.60;;;;;;5083817;28;20027;-74
2022/12/27 01:55:20;;;;;;;5.63;2.10;;;5.00;90.70;;;;;;5135975;28;20083;-74
2022/12/27 01:57:47;;;;;;;4.87;1.73;;;5.00;90.80;;;;;;5134961;28;20023;-74
2022/12/27 02:00:14;;;;;;;4.82;1.85;;;5.00;90.80;;;;;;5135868;28;20073;-74
2022/12/27 02:02:40;;;;;;;4.68;2.40;;;5.00;90.90;;;;;;5135805;28;20019;-74
2022/12/27 02:05:08;;;;;;;5.20;2.10;;;5.00;91.00;;;;;;5134699;28;20066;-74
2022/12/27 02:07:46;;;;;;;5.80;2.33;;;5.00;91.00;;;;;;5135673;28;20083;-74
2022/12/27 02:10:12;;;;;;;5.53;2.05;;;5.00;91.00;;;;;;5134652;28;20123;-74
2022/12/27 02:12:38;;;;;;;9.27;2.10;;;5.00;91.10;;;;;;5117613;28;20043;-74
2022/12/27 02:15:03;;;;;;;3.70;1.52;;;5.00;91.10;;;;;;5134568;28;20028;-74
2022/12/27 02:17:31;;;;;;;4.57;2.08;;;5.00;91.10;;;;;;5135513;28;20481;-74
2022/12/27 02:20:16;;;;;;;8.55;2.30;;;5.00;91.20;;;;;;5135296;28;20044;-74
2022/12/27 02:25:50;;;;;;;3.78;1.50;;;5.00;91.30;;;;;;5135574;28;20054;-73
2022/12/27 02:28:40;;;;;;;5.97;2.47;;;5.00;91.50;;;;;;5135296;28;20028;-74
2022/12/27 02:31:28;;;;;;;7.60;2.20;;;5.00;91.60;;;;;;5135301;28;20042;-74
2022/12/27 02:33:56;;;;;;;8.07;2.65;;;5.00;91.60;;;;;;5134120;28;20023;-73
2022/12/27 02:36:25;;;;;;;5.28;1.90;;;5.00;91.60;;;;;;5134101;28;20020;-73
2022/12/27 02:38:56;;;;;;;2.40;1.30;;;5.00;91.60;;;;;;5135224;28;20020;-74
2022/12/27 02:55:40;;;;;;;4.70;2.00;;;5.20;91.60;;;;;;5134790;28;20031;-74
2022/12/27 02:58:44;;;;;;;3.25;1.98;;;5.30;91.50;;;;;;5133747;28;20042;-74
2022/12/27 03:04:34;;;;;;;5.80;1.75;;;5.30;91.60;;;;;;5134678;28;20038;-73
2022/12/27 03:07:15;;;;;;;4.13;1.63;;;5.30;91.60;;;;;;5134612;28;20028;-74
2022/12/27 03:15:59;;;;;;;5.82;1.90;;;5.20;91.80;;;;;;5134601;28;20035;-74
2022/12/27 03:19:01;;;;;;;4.57;1.70;;;5.20;91.80;;;;;;5134224;28;20099;-73
2022/12/27 03:27:27;;;;;;;3.97;1.48;;;5.20;91.70;;;;;;5134317;28;20027;-74
2022/12/27 03:33:24;;;;;;;15.68;2.20;;;5.30;91.80;;;;;;5134303;28;20455;-74
2022/12/27 03:38:45;;;;;;;7.20;2.28;;;5.30;91.80;;;;;;5134385;28;20038;-73
2022/12/27 03:44:22;;;;;;;8.55;2.42;;;5.30;91.70;;;;;;5134301;28;20034;-73
2022/12/27 03:46:47;;;;;;;4.93;2.20;;;5.30;91.70;;;;;;5133091;28;20039;-74
2022/12/27 03:49:38;;;;;;;9.63;1.63;;;5.40;91.70;;;;;;5116195;28;20031;-73
2022/12/27 03:52:18;;;;;;;4.05;1.58;;;5.30;91.70;;;;;;5133989;28;20024;-74
2022/12/27 03:54:47;;;;;;;7.60;2.20;;;5.30;91.70;;;;;;5133953;28;20044;-74
2022/12/27 03:57:15;;;;;;;3.30;1.48;;;5.30;91.90;;;;;;5134773;28;20028;-73
2022/12/27 03:59:41;;;;;;;7.13;2.00;;;5.30;91.90;;;;;;5138240;28;20024;-74
2022/12/27 04:02:07;;;;;;;4.95;1.52;;;5.30;91.90;;;;;;5138166;28;20023;-74
2022/12/27 04:04:32;;;;;;;5.65;1.30;;;5.30;91.90;;;;;;5138142;28;20012;-73
2022/12/27 04:06:58;;;;;;;9.65;1.90;;;5.20;92.00;;;;;;5138066;28;20031;-74
2022/12/27 04:36:48;;;;;;;10.88;1.65;;;5.20;92.70;;;;;;5096786;28;20514;-74
2022/12/27 04:39:14;;;;;;;6.03;1.98;;;5.20;92.70;;;;;;5096628;28;20043;-74
2022/12/27 04:55:30;;;;;;;6.57;2.13;;;5.20;93.00;;;;;;5096384;28;20067;-74
2022/12/27 04:57:56;;;;;;;6.45;1.95;;;5.20;93.10;;;;;;5095234;28;20033;-74
2022/12/27 05:03:14;;;;;;;11.43;2.25;;;5.20;93.10;;;;;;5096412;28;20024;-74
2022/12/27 05:05:41;;;;;;;7.95;1.52;;;5.20;93.10;;;;;;5096116;28;20036;-73
2022/12/27 05:16:20;;;;;;;9.07;1.60;;;5.20;93.30;;;;;;5081107;28;20059;-74
2022/12/27 05:18:46;;;;;;;6.25;2.08;;;5.20;93.30;;;;;;5112942;28;20047;-74
2022/12/27 05:21:12;;;;;;;7.28;1.98;;;5.20;93.30;;;;;;5136625;28;20146;-74
2022/12/27 05:26:25;;;;;;;5.40;1.83;;;5.20;93.20;;;;;;5136698;28;20070;-73
2022/12/27 05:28:52;;;;;;;6.03;1.42;;;5.20;93.20;;;;;;5135577;28;20024;-73
2022/12/27 05:31:18;;;;;;;3.22;1.52;;;5.20;93.00;;;;;;5135437;28;20085;-74
2022/12/27 05:33:44;;;;;;;4.75;2.03;;;5.30;93.00;;;;;;5136321;28;20038;-74
2022/12/27 05:36:10;;;;;;;5.57;2.00;;;5.30;92.90;;;;;;5136346;28;20028;-74
2022/12/27 05:38:36;;;;;;;5.50;1.88;;;5.20;92.80;;;;;;5135243;28;20513;-74
2022/12/27 05:41:03;;;;;;;6.38;2.00;;;5.20;92.80;;;;;;5118267;28;20023;-73
2022/12/27 05:43:29;;;;;;;7.28;2.58;;;5.20;92.70;;;;;;5135253;28;20024;-73
2022/12/27 05:46:01;;;;;;;5.45;1.38;;;5.20;92.60;;;;;;5136155;28;20023;-74
2022/12/27 05:48:27;;;;;;;8.43;2.30;;;5.20;92.60;;;;;;5135224;28;20126;-74
2022/12/27 05:50:53;;;;;;;7.70;1.88;;;5.10;92.50;;;;;;5136086;28;20477;-74
2022/12/27 05:53:18;;;;;;;3.47;1.60;;;5.10;92.70;;;;;;5135925;28;20048;-73
2022/12/27 05:55:44;;;;;;;4.95;1.48;;;5.10;92.80;;;;;;5136099;28;20028;-74
2022/12/27 05:58:09;;;;;;;4.10;1.83;;;5.10;92.80;;;;;;5135040;28;20047;-74
2022/12/27 06:00:35;;;;;;;6.65;2.00;;;5.10;92.90;;;;;;5135816;28;20098;-74
2022/12/27 06:03:02;;;;;;;6.75;1.85;;;5.10;92.90;;;;;;5135810;28;20070;-74
2022/12/27 06:05:27;;;;;;;7.50;1.95;;;5.10;93.10;;;;;;5135795;28;20065;-73
2022/12/27 06:07:53;;;;;;;5.03;1.60;;;5.10;93.10;;;;;;5135667;28;20023;-74
2022/12/27 06:10:18;;;;;;;8.27;1.67;;;5.10;93.10;;;;;;5135652;28;20028;-74
2022/12/27 06:12:44;;;;;;;7.18;1.83;;;5.10;93.10;;;;;;5134701;28;20032;-74
2022/12/27 06:15:10;;;;;;;7.00;2.00;;;5.10;93.10;;;;;;5117471;28;20028;-74
2022/12/27 06:17:36;;;;;;;6.05;1.48;;;5.10;93.20;;;;;;5117739;28;20020;-74
2022/12/27 06:20:02;;;;;;;5.05;1.50;;;5.00;93.30;;;;;;5133738;28;20055;-74
2022/12/27 06:22:27;;;;;;;3.65;1.60;;;5.00;93.30;;;;;;5134601;28;20055;-74
2022/12/27 06:24:53;;;;;;;3.08;1.38;;;5.10;93.20;;;;;;5134340;28;20481;-74
2022/12/27 06:27:18;;;;;;;9.80;1.63;;;5.00;93.20;;;;;;5100436;28;20024;-73
2022/12/27 06:29:44;;;;;;;4.22;1.17;;;5.10;93.50;;;;;;5135312;28;20114;-74
2022/12/27 06:32:10;;;;;;;3.72;1.73;;;5.10;93.10;;;;;;5134339;28;20044;-74
2022/12/27 06:34:35;;;;;;;2.75;0.98;;;5.10;93.10;;;;;;5134127;28;20547;-74
2022/12/27 06:37:01;;;;;;;4.35;1.48;;;5.10;93.10;;;;;;5135153;28;20410;-74
2022/12/27 06:39:27;;;;;;;4.82;1.48;;;5.10;93.10;;;;;;5135121;28;20031;-73
2022/12/27 06:41:54;;;;;;;3.53;1.08;;;5.10;93.00;;;;;;5135050;28;20036;-74
2022/12/27 06:44:19;;;;;;;3.33;1.38;;;5.10;93.10;;;;;;5134075;28;20028;-74
2022/12/27 06:46:45;;;;;;;10.85;1.58;;;5.10;93.10;;;;;;5117088;28;20059;-74
2022/12/27 06:49:10;;;;;;;4.55;2.00;;;5.20;93.00;;;;;;5133867;28;20103;-74
2022/12/27 06:51:36;;;;;;;5.07;1.30;;;5.20;93.20;;;;;;5133981;28;20115;-76
2022/12/27 06:54:02;;;;;;;4.68;1.77;;;5.20;93.30;;;;;;5133825;28;20024;-74
2022/12/27 06:56:27;;;;;;;5.60;2.17;;;5.20;93.40;;;;;;5116810;28;20024;-74
2022/12/27 06:58:53;;;;;;;4.82;1.90;;;5.10;93.40;;;;;;5133887;28;20032;-74
2022/12/27 07:01:26;;;;;;;6.70;2.45;;;5.20;93.50;;;;;;5133767;28;20088;-74
2022/12/27 07:03:54;;;;;;;11.85;3.08;;;5.20;93.50;;;;;;5134649;28;20384;-73
2022/12/27 07:06:22;;;;;;;5.82;2.80;;;5.10;93.60;;;;;;5133677;28;20032;-74
2022/12/27 07:08:48;;;;;;;8.13;3.67;;;5.10;93.70;;;;;;5133687;28;20032;-74
2022/12/27 07:11:15;;;;;;;6.57;2.55;;;5.10;93.60;;;;;;5133681;28;20031;-73
2022/12/27 07:13:43;;;;;;;7.57;2.72;;;5.00;94.00;;;;;;5133466;28;20432;-73
2022/12/27 07:16:11;;;;;;;7.50;3.08;;;5.00;93.60;;;;;;5134380;28;20031;-74
2022/12/27 07:18:37;;;;;;;10.00;2.88;;;5.10;93.60;;;;;;5134220;28;20437;-73
2022/12/27 07:21:07;;;;;;;10.35;3.35;;;5.10;93.60;;;;;;5134408;28;20075;-74
2022/12/27 07:23:34;;;;;;;4.97;2.13;;;5.00;93.70;;;;;;5134388;28;20051;-74
2022/12/27 07:26:08;;;;;;;7.60;2.72;;;5.00;93.60;;;;;;5134333;28;20027;-74
2022/12/27 07:28:34;;;;;;;7.20;2.38;;;5.10;93.50;;;;;;5134278;28;20027;-74
2022/12/27 07:31:04;;;;;;;7.45;2.22;;;5.00;93.50;;;;;;5134232;28;20075;-74
2022/12/27 07:33:29;;;;;;;5.22;2.50;;;5.00;93.50;;;;;;5133137;28;20100;-74
2022/12/27 07:35:59;;;;;;;5.60;1.80;;;5.00;93.50;;;;;;5116135;28;20031;-74
2022/12/27 07:38:25;;;;;;;7.55;2.22;;;5.00;93.50;;;;;;5134111;28;20055;-74
2022/12/27 07:40:51;;;;;;;7.55;2.00;;;4.90;93.50;;;;;;5116157;28;20035;-74
2022/12/27 07:43:17;;;;;;;8.52;2.42;;;4.90;93.60;;;;;;5133245;28;20028;-74
2022/12/27 07:45:42;;;;;;;9.35;2.97;;;4.90;93.60;;;;;;5133023;28;20020;-74
2022/12/27 07:48:08;;;;;;;6.43;2.55;;;4.90;93.60;;;;;;5115974;28;20030;-74
2022/12/27 07:50:34;;;;;;;6.82;2.35;;;4.80;93.60;;;;;;5133986;28;20026;-73
2022/12/27 07:52:59;;;;;;;6.20;2.03;;;4.80;93.60;;;;;;5133957;28;20031;-74
2022/12/27 07:55:25;;;;;;;5.28;2.10;;;4.80;93.70;;;;;;5133848;28;20032;-74
2022/12/27 07:57:50;;;;;;;7.93;2.60;;;4.80;93.70;;;;;;5133887;28;20027;-74
2022/12/27 08:00:16;;;;;;;4.65;1.90;;;4.70;93.60;;;;;;5133876;28;20032;-74
2022/12/27 08:02:42;;;;;;;3.13;1.55;;;4.70;93.60;;;;;;5132841;28;20028;-74
2022/12/27 08:05:08;;;;;;;3.03;1.60;;;4.70;93.80;;;;;;5132827;28;20019;-74
2022/12/27 08:07:35;;;;;;;7.90;2.60;;;4.70;93.70;;;;;;5132857;28;20031;-74
2022/12/27 08:10:02;;;;;;;8.35;2.22;;;4.70;93.60;;;;;;5115761;28;20066;-74
2022/12/27 08:12:27;;;;;;;6.65;1.88;;;4.70;93.70;;;;;;5133840;28;20027;-74
2022/12/27 08:14:53;;;;;;;5.63;2.10;;;4.70;93.80;;;;;;5115801;28;20043;-74
2022/12/27 08:17:25;;;;;;;5.07;1.90;;;4.80;93.90;;;;;;5132718;28;20050;-74
2022/12/27 08:19:52;;;;;;;;;;;4.80;93.90;;;;;;5133036;28;20036;-74
2022/12/27 08:22:17;;;;;;;6.68;1.92;;;4.80;93.80;;;;;;5132718;28;19904;-74
2022/12/27 08:24:43;;;;;;;7.95;1.75;;;4.80;93.90;;;;;;5132937;28;20496;-74
2022/12/27 08:27:10;;;;;;;2.13;1.13;;;4.80;94.00;;;;;;5115668;28;20019;-74
2022/12/27 08:29:36;;;;;;;6.38;1.98;;;4.90;94.30;;;;;;5133693;28;20032;-74
2022/12/27 08:32:03;;;;;;;6.15;2.25;;;4.90;94.00;;;;;;5132666;28;20019;-74
2022/12/27 08:34:28;;;;;;;4.75;2.03;;;4.90;94.00;;;;;;5132541;28;20462;-74
2022/12/27 08:36:54;;;;;;;5.88;1.60;;;5.00;93.70;;;;;;5132625;28;20038;-74
2022/12/27 08:39:20;;;;;;;6.35;1.85;;;5.10;93.60;;;;;;5115498;28;20039;-74
2022/12/27 08:41:46;;;;;;;5.85;2.38;;;5.20;93.50;;;;;;5132661;28;20023;-74
2022/12/27 08:44:12;;;;;;;5.38;1.88;;;5.30;93.30;;;;;;5134927;28;20026;-74
2022/12/27 08:46:38;;;;;;;3.75;1.02;;;5.30;93.20;;;;;;5119361;28;20103;-74
2022/12/27 08:49:04;;;;;;;6.55;2.20;;;5.40;93.00;;;;;;5137284;28;20043;-74
2022/12/27 08:51:30;;;;;;;5.28;2.05;;;5.60;93.00;;;;;;5137288;28;20030;-74
2022/12/27 08:53:56;;;;;;;11.68;2.30;;;6.10;92.90;;;;;;5136082;28;20122;-74
2022/12/27 08:56:21;;;;;;;7.00;2.20;;;6.60;91.70;;;;;;5137205;28;20046;-74
2022/12/27 08:58:50;;;;;;;8.73;2.17;;;6.70;90.70;;;;;;5136345;28;20169;-74
2022/12/27 09:01:16;;;;;;;6.47;2.33;;;6.80;90.40;;;;;;5119113;28;20024;-74
2022/12/27 09:03:42;;;;;;;3.70;1.85;;;6.80;90.00;;;;;;5137039;28;20051;-74
2022/12/27 09:06:14;;;;;;;7.15;2.38;;;6.80;90.10;;;;;;5135983;28;20054;-74
2022/12/27 09:08:41;;;;;;;;;;;6.70;90.30;;;;;;5137302;28;20153;-74
2022/12/27 09:11:28;;;;;;;6.50;2.47;;;6.80;90.30;;;;;;5136901;27;19934;-74
2022/12/27 09:13:55;;;;;;;2.83;1.52;;;6.70;90.40;;;;;;5136690;27;20027;-74
2022/12/27 09:16:26;;;;;;;6.55;2.50;;;6.80;90.40;;;;;;5135860;28;20024;-74
2022/12/27 09:18:54;;;;;;;7.60;1.95;;;6.80;90.50;;;;;;5135499;28;20414;-73
2022/12/27 09:21:21;;;;;;;3.83;1.60;;;6.90;90.30;;;;;;5135708;28;20023;-73
2022/12/27 09:23:47;;;;;;;5.22;2.10;;;7.00;90.00;;;;;;5136625;28;20040;-74
2022/12/27 09:26:22;;;;;;;5.53;2.10;;;7.40;89.80;;;;;;5135577;28;20032;-74
2022/12/27 09:28:48;;;;;;;5.55;2.65;;;7.90;88.10;;;;;;5135592;28;20091;-73
2022/12/27 09:31:16;;;;;;;6.40;2.65;;;8.40;86.70;;;;;;5135515;28;20047;-74
2022/12/27 09:33:42;;;;;;;12.10;2.50;;;9.10;83.70;;;;;;5135407;28;20034;-74
2022/12/27 09:36:16;;;;;;;5.00;2.35;;;9.50;82.10;;;;;;5135432;28;20020;-74
2022/12/27 09:38:42;;;;;;;5.68;2.53;;;9.70;79.40;;;;;;5136343;28;20020;-74
2022/12/27 09:41:19;;;;;;;4.97;2.20;;;9.80;78.80;;;;;;5136307;28;20020;-74
2022/12/27 09:44:06;;;;;;;6.05;2.70;;;10.10;78.20;;;;;;5135247;28;20028;-74
2022/12/27 09:46:58;;;;;;;7.53;2.53;;;10.30;76.90;;;;;;5135206;28;20019;-74
2022/12/27 09:49:37;;;;;;;4.88;2.08;;;10.30;76.40;;;;;;5135138;28;20030;-74
2022/12/27 09:52:25;;;;;;;7.75;2.80;;;10.00;77.40;;;;;;5136134;28;20027;-74
2022/12/27 09:55:14;;;;;;;5.75;2.10;;;9.80;78.40;;;;;;5134858;28;20024;-74
2022/12/27 09:57:42;;;;;;;8.05;2.58;;;9.50;78.60;;;;;;5134955;28;20424;-74
2022/12/27 10:00:20;;;;;;;11.57;2.85;;;9.50;79.50;;;;;;5135941;28;20039;-74
2022/12/27 10:02:47;;;;;;;4.63;2.30;;;9.70;79.10;;;;;;5135915;28;20020;-74
2022/12/27 10:05:24;;;;;;;5.38;2.15;;;9.90;80.00;;;;;;5118040;28;20055;-74
2022/12/27 10:08:09;;;;;;;5.03;2.22;;;10.00;77.70;;;;;;5135728;28;20019;-74
2022/12/27 10:10:41;;;;;;;7.85;2.35;;;9.80;78.30;;;;;;5135925;28;20083;-74
2022/12/27 10:13:21;;;;;;;8.50;2.83;;;9.90;79.20;;;;;;5134753;28;20027;-74
2022/12/27 10:16:04;;;;;;;4.07;1.92;;;10.10;78.30;;;;;;5134753;28;20288;-74
2022/12/27 10:18:30;;;;;;;5.43;1.98;;;9.90;78.30;;;;;;5135490;27;20035;-74
2022/12/27 10:21:12;;;;;;;8.15;2.22;;;9.90;78.10;;;;;;5135543;28;20054;-74
2022/12/27 10:23:46;;;;;;;6.78;2.00;;;10.20;79.10;;;;;;5135602;28;20034;-74
2022/12/27 10:26:17;;;;;;;6.28;2.20;;;10.50;77.00;;;;;;5135636;28;20024;-74
2022/12/27 10:28:46;;;;;;;9.10;2.03;;;10.70;76.40;;;;;;5135398;28;20023;-74
2022/12/27 10:31:20;;;;;;;4.30;2.13;;;11.10;75.90;;;;;;5135295;28;20265;-74
2022/12/27 10:33:48;;;;;;;7.03;2.20;;;11.50;74.90;;;;;;5135266;28;20036;-74
2022/12/27 10:36:29;;;;;;;5.75;2.38;;;11.70;73.20;;;;;;5134159;28;20012;-74
2022/12/27 10:38:55;;;;;;;6.05;2.35;;;11.90;72.20;;;;;;5135214;28;20028;-74
2022/12/27 10:41:49;;;;;;;4.90;2.20;;;11.60;72.20;;;;;;5135104;28;20041;-74
2022/12/27 10:44:14;;;;;;;7.85;2.22;;;11.20;73.30;;;;;;5094109;28;20095;-74
2022/12/27 10:46:43;;;;;;;4.65;2.53;;;10.70;76.00;;;;;;5134969;28;20027;-73
2022/12/27 10:49:30;;;;;;;6.72;2.00;;;10.30;76.10;;;;;;5134973;28;20024;-74
2022/12/27 10:52:18;;;;;;;4.75;2.45;;;10.10;77.90;;;;;;5133969;28;20020;-74
2022/12/27 10:54:56;;;;;;;6.88;2.00;;;10.00;78.50;;;;;;5134302;28;20035;-73
2022/12/27 10:57:27;;;;;;;7.65;1.77;;;9.80;79.60;;;;;;5133757;28;20023;-74
2022/12/27 11:00:18;;;;;;;12.65;2.55;;;9.70;80.10;;;;;;5133673;28;20038;-73
2022/12/27 11:03:17;;;;;;;4.18;2.10;;;9.60;80.30;;;;;;5134657;28;20020;-74
2022/12/27 11:05:56;;;;;;;6.72;2.10;;;9.50;80.70;;;;;;5134451;28;20016;-74
2022/12/27 11:08:23;;;;;;;2.58;1.17;;;9.50;81.40;;;;;;5133502;28;20045;-74
2022/12/27 11:10:52;;;;;;;6.93;3.70;;;9.50;81.20;;;;;;5133582;28;20051;-74
2022/12/27 11:13:18;;;;;;;7.00;1.83;;;9.40;81.70;;;;;;5134437;28;20501;-73
2022/12/27 11:15:56;;;;;;;3.85;1.17;;;9.40;81.70;;;;;;5134406;28;20027;-73
2022/12/27 11:18:22;;;;;;;5.50;2.38;;;9.30;81.70;;;;;;5133179;28;20056;-73
2022/12/27 11:20:56;;;;;;;6.95;2.10;;;9.20;82.40;;;;;;5134359;28;20121;-74
2022/12/27 11:23:27;;;;;;;5.93;2.08;;;9.30;82.20;;;;;;5133427;28;20019;-74
2022/12/27 11:26:00;;;;;;;11.80;3.20;;;9.20;82.70;;;;;;5134511;28;20019;-74
2022/12/27 11:28:46;;;;;;;5.32;3.33;;;9.20;82.40;;;;;;5134323;28;20019;-74
2022/12/27 11:31:15;;;;;;;4.78;2.17;;;9.10;82.30;;;;;;5134260;28;20065;-74
2022/12/27 11:33:45;;;;;;;8.55;2.08;;;9.00;82.80;;;;;;5134075;28;20026;-73
2022/12/27 11:36:12;;;;;;;3.28;2.17;;;8.90;83.40;;;;;;5133070;28;20046;-73
2022/12/27 11:38:43;;;;;;;4.30;2.63;;;8.80;83.80;;;;;;5134071;28;20031;-73
2022/12/27 11:41:15;;;;;;;4.90;2.28;;;8.80;84.10;;;;;;5134148;28;20030;-73
2022/12/27 11:43:52;;;;;;;7.95;3.88;;;8.70;84.00;;;;;;5134095;28;20027;-74
2022/12/27 11:46:30;;;;;;;3.35;2.15;;;8.70;84.30;;;;;;5134085;28;20035;-73
2022/12/27 11:48:57;;;;;;;9.63;3.58;;;8.60;84.40;;;;;;5134046;28;20072;-73
2022/12/27 11:51:55;;;;;;;4.63;2.25;;;8.50;84.60;;;;;;5133962;28;20023;-73
2022/12/27 11:54:36;;;;;;;7.03;2.10;;;8.40;85.00;;;;;;5106088;28;20040;-73
2022/12/27 11:57:33;;;;;;;6.93;2.30;;;8.30;85.40;;;;;;5133000;28;20028;-73
2022/12/27 12:00:26;;;;;;;6.43;1.90;;;8.20;85.70;;;;;;5133986;28;20028;-73
2022/12/27 12:02:57;;;;;;;;;;;8.10;86.20;;;;;;5134140;28;20016;-73
2022/12/27 12:05:36;;;;;;;6.88;1.80;;;8.00;87.50;;;;;;5132823;28;19904;-73
2022/12/27 12:08:10;;;;;;;3.75;2.20;;;8.00;86.90;;;;;;5133857;28;20030;-73
2022/12/27 12:11:18;;;;;;;6.55;1.70;;;7.90;87.30;;;;;;5133814;28;20027;-73
2022/12/27 12:14:02;;;;;;;4.53;1.98;;;7.90;87.70;;;;;;5122669;28;20046;-73
2022/12/27 12:16:49;;;;;;;6.43;1.95;;;7.90;87.80;;;;;;5133931;28;20020;-73
2022/12/27 12:19:27;;;;;;;6.35;1.88;;;8.00;87.90;;;;;;5135117;28;20044;-73
2022/12/27 12:22:14;;;;;;;4.70;2.20;;;7.90;88.10;;;;;;5137806;28;20471;-73
2022/12/27 12:24:59;;;;;;;5.55;2.42;;;8.00;88.10;;;;;;5137741;28;20031;-73
2022/12/27 12:27:25;;;;;;;6.97;2.45;;;7.90;89.10;;;;;;5137752;28;20049;-73
2022/12/27 12:30:10;;;;;;;8.10;2.50;;;8.00;88.50;;;;;;5137645;28;20035;-73
2022/12/27 12:33:05;;;;;;;7.78;2.70;;;8.20;88.50;;;;;;5137621;28;20059;-73
2022/12/27 12:35:45;;;;;;;5.20;2.22;;;8.60;88.10;;;;;;5137524;28;20065;-73
2022/12/27 12:38:21;;;;;;;11.18;3.05;;;9.20;85.70;;;;;;5137638;28;20036;-73
2022/12/27 12:41:18;;;;;;;4.75;2.05;;;9.20;84.00;;;;;;5137532;28;20019;-73
2022/12/27 12:44:09;;;;;;;8.43;2.25;;;9.30;83.90;;;;;;5137397;28;20070;-73
2022/12/27 12:46:40;;;;;;;4.43;1.80;;;9.30;84.10;;;;;;5137409;28;20023;-73
2022/12/27 12:49:25;;;;;;;5.63;2.30;;;9.10;83.70;;;;;;5137492;28;20083;-73
2022/12/27 12:52:17;;;;;;;3.47;1.55;;;9.00;84.20;;;;;;5137173;28;20095;-73
2022/12/27 12:54:55;;;;;;;5.88;2.38;;;8.90;85.00;;;;;;5136173;28;20050;-74
2022/12/27 12:57:24;;;;;;;4.15;1.80;;;8.90;85.70;;;;;;5137189;28;20020;-73
2022/12/27 13:00:07;;;;;;;4.80;1.83;;;9.00;85.00;;;;;;5137072;28;20028;-73
2022/12/27 13:02:54;;;;;;;4.90;1.63;;;9.10;84.70;;;;;;5137037;28;20024;-73
2022/12/27 13:05:41;;;;;;;3.47;1.60;;;9.10;85.10;;;;;;5137041;28;20057;-73
2022/12/27 13:08:10;;;;;;;3.53;1.40;;;9.00;84.50;;;;;;5135814;28;20038;-73
2022/12/27 13:11:05;;;;;;;5.13;1.98;;;9.10;85.10;;;;;;5136888;28;20083;-73
2022/12/27 13:14:05;;;;;;;10.05;2.03;;;9.20;84.40;;;;;;5136021;28;20024;-73
2022/12/27 13:16:54;;;;;;;9.45;2.40;;;9.20;85.40;;;;;;5136853;28;20023;-73
2022/12/27 13:19:47;;;;;;;5.72;2.30;;;9.20;84.50;;;;;;5136537;28;20038;-73
2022/12/27 13:22:31;;;;;;;;;;;9.10;85.20;;;;;;5137130;28;20024;-73
2022/12/27 13:25:05;;;;;;;6.63;2.17;;;9.00;85.10;;;;;;5136614;28;19908;-73
2022/12/27 13:27:40;;;;;;;9.55;2.05;;;8.90;85.50;;;;;;5136718;28;20027;-73
2022/12/27 13:30:22;;;;;;;7.35;2.28;;;8.80;85.80;;;;;;5136524;28;20370;-73
2022/12/27 13:33:07;;;;;;;5.72;2.13;;;8.80;85.40;;;;;;5136495;28;20024;-73
2022/12/27 13:35:38;;;;;;;5.80;1.90;;;8.90;86.70;;;;;;5136434;28;20053;-73
2022/12/27 13:38:30;;;;;;;5.10;1.60;;;8.90;85.60;;;;;;5136358;28;20106;-73
2022/12/27 13:41:36;;;;;;;4.97;1.50;;;8.90;85.50;;;;;;5136479;28;20030;-73
2022/12/27 13:44:16;;;;;;;3.92;1.50;;;9.00;85.40;;;;;;5136479;28;20024;-73
2022/12/27 13:47:16;;;;;;;3.85;2.15;;;9.00;84.90;;;;;;5136241;28;20069;-73
2022/12/27 13:49:47;;;;;;;3.15;1.63;;;9.00;85.70;;;;;;5136276;28;20102;-73
2022/12/27 13:52:36;;;;;;;4.22;2.05;;;9.00;85.00;;;;;;5136079;28;20074;-73
2022/12/27 13:55:39;;;;;;;6.65;1.80;;;9.00;84.80;;;;;;5136120;28;20054;-73
2022/12/27 13:58:26;;;;;;;4.65;1.70;;;9.00;85.00;;;;;;5136106;28;20019;-73
2022/12/27 14:01:07;;;;;;;2.97;1.65;;;8.90;85.30;;;;;;5135988;28;20016;-73
2022/12/27 14:04:22;;;;;;;8.23;1.98;;;8.90;85.50;;;;;;5135971;28;20047;-73
2022/12/27 14:07:09;;;;;;;5.88;1.65;;;8.90;85.50;;;;;;5112818;28;20028;-73
2022/12/27 14:09:53;;;;;;;3.45;1.55;;;8.80;85.70;;;;;;5135737;28;20057;-73
2022/12/27 14:12:27;;;;;;;5.53;1.65;;;8.80;86.30;;;;;;5135883;28;20058;-73
2022/12/27 14:14:58;;;;;;;4.03;1.65;;;8.70;87.00;;;;;;5134606;28;20030;-73
2022/12/27 14:17:49;;;;;;;5.95;1.88;;;8.60;87.00;;;;;;5135702;27;20079;-73
2022/12/27 14:20:36;;;;;;;4.10;1.83;;;8.60;87.60;;;;;;5135433;28;20067;-73
2022/12/27 14:23:04;;;;;;;3.25;1.95;;;8.60;87.90;;;;;;5134522;28;20019;-73
2022/12/27 14:25:50;;;;;;;4.22;2.28;;;8.50;88.10;;;;;;5134465;28;20030;-73
2022/12/27 14:28:16;;;;;;;7.60;1.90;;;8.50;88.60;;;;;;5135471;28;20023;-73
2022/12/27 14:30:59;;;;;;;5.10;1.58;;;8.40;88.50;;;;;;5135336;28;20030;-73
2022/12/27 14:34:01;;;;;;;4.78;2.10;;;8.40;88.80;;;;;;5135392;28;20023;-73
2022/12/27 14:36:38;;;;;;;4.82;1.73;;;8.40;89.00;;;;;;5134319;28;20027;-73
2022/12/27 14:39:32;;;;;;;6.00;1.95;;;8.30;89.10;;;;;;5135193;28;20051;-73
2022/12/27 14:42:29;;;;;;;3.35;1.40;;;8.30;89.60;;;;;;5134530;28;20044;-73
2022/12/27 14:44:57;;;;;;;3.25;1.80;;;8.30;89.80;;;;;;5135069;28;20389;-73
2022/12/27 14:47:41;;;;;;;6.63;2.13;;;8.30;90.00;;;;;;5134029;28;20027;-73
2022/12/27 14:50:06;;;;;;;5.53;2.05;;;8.20;90.10;;;;;;5135149;28;20083;-73
2022/12/27 14:52:52;;;;;;;10.27;2.10;;;8.20;90.20;;;;;;5134940;28;20019;-73
2022/12/27 14:56:00;;;;;;;8.95;3.03;;;8.20;90.30;;;;;;5133768;28;20032;-73
2022/12/27 14:58:46;;;;;;;4.18;1.73;;;8.20;90.40;;;;;;5124344;28;20031;-73
2022/12/27 15:01:30;;;;;;;6.90;2.17;;;8.10;90.40;;;;;;5133801;28;20019;-73
2022/12/27 15:04:37;;;;;;;5.72;1.38;;;8.10;90.50;;;;;;5134903;28;20024;-73
2022/12/27 15:07:24;;;;;;;2.92;1.23;;;8.10;90.30;;;;;;5052075;28;20025;-73
2022/12/27 15:10:15;;;;;;;6.95;2.03;;;8.10;90.40;;;;;;5132910;28;20050;-73